createdAt,value
2022-12-17T00:02:06.290Z,100633.69
2022-12-17T00:04:52.051Z,100629.34
2022-12-17T00:07:38.595Z,100629.25
2022-12-17T00:10:27.287Z,100638.69
2022-12-17T00:13:13.239Z,100651.06
2022-12-17T00:15:59.399Z,100644.44
2022-12-17T00:18:45.223Z,100646.63
2022-12-17T00:21:31.153Z,100649.00
2022-12-17T00:24:17.220Z,100644.78
2022-12-17T00:27:04.259Z,100643.13
2022-12-17T00:29:50.174Z,100654.94
2022-12-17T00:32:37.814Z,100653.97
2022-12-17T00:35:25.076Z,100653.88
2022-12-17T00:38:11.127Z,100653.03
2022-12-17T00:40:57.285Z,100651.78
2022-12-17T00:43:44.456Z,100660.69
2022-12-17T00:46:30.396Z,100665.91
2022-12-17T00:49:16.263Z,100665.41
2022-12-17T00:52:02.253Z,100664.25
2022-12-17T00:54:48.403Z,100661.91
2022-12-17T00:57:34.331Z,100670.34
2022-12-17T01:00:22.424Z,100675.94
2022-12-17T01:03:08.400Z,100674.59
2022-12-17T01:05:54.647Z,100675.13
2022-12-17T01:08:40.600Z,100680.19
2022-12-17T01:11:27.511Z,100674.53
2022-12-17T01:14:25.062Z,100681.75
2022-12-17T01:17:12.373Z,100681.56
2022-12-17T01:19:58.397Z,100684.19
2022-12-17T01:22:44.362Z,100694.94
2022-12-17T01:25:30.493Z,100698.31
2022-12-17T01:28:17.515Z,100700.75
2022-12-17T01:31:03.647Z,100705.94
2022-12-17T01:33:52.609Z,100709.09
2022-12-17T01:36:39.127Z,100707.13
2022-12-17T01:39:24.833Z,100718.25
2022-12-17T01:42:10.773Z,100719.81
2022-12-17T01:45:07.728Z,100717.88
2022-12-17T01:47:58.484Z,100731.88
2022-12-17T01:50:48.956Z,100741.63
2022-12-17T01:53:38.654Z,100738.34
2022-12-17T01:56:26.411Z,100737.06
2022-12-17T01:59:12.147Z,100732.78
2022-12-17T02:01:58.905Z,100732.59
2022-12-17T02:04:45.914Z,100732.88
2022-12-17T02:07:57.509Z,100741.84
2022-12-17T02:10:49.114Z,100751.75
2022-12-17T02:13:40.328Z,100745.22
2022-12-17T02:16:31.053Z,100744.72
2022-12-17T02:19:33.164Z,100751.94
2022-12-17T02:22:25.998Z,100758.03
2022-12-17T02:25:19.782Z,100750.91
2022-12-17T02:28:07.297Z,100747.22
2022-12-17T02:30:55.423Z,100750.31
2022-12-17T02:33:42.578Z,100748.97
2022-12-17T02:36:29.270Z,100746.94
2022-12-17T02:39:11.569Z,100749.88
2022-12-17T02:42:04.077Z,100755.00
2022-12-17T02:44:54.153Z,100759.69
2022-12-17T02:47:42.229Z,100778.19
2022-12-17T02:50:29.052Z,100767.88
2022-12-17T02:53:19.133Z,100769.16
2022-12-17T02:56:05.122Z,100773.53
2022-12-17T02:58:54.106Z,100773.88
2022-12-17T03:01:41.251Z,100772.81
2022-12-17T03:04:27.560Z,100773.44
2022-12-17T03:07:13.500Z,100775.56
2022-12-17T03:10:01.171Z,100784.28
2022-12-17T03:12:47.867Z,100782.88
2022-12-17T03:15:34.260Z,100781.44
2022-12-17T03:18:21.251Z,100792.44
2022-12-17T03:21:11.172Z,100794.69
2022-12-17T03:23:57.626Z,100799.88
2022-12-17T03:26:43.759Z,100808.56
2022-12-17T03:29:29.816Z,100804.78
2022-12-17T03:32:16.486Z,100801.38
2022-12-17T03:35:03.652Z,100806.41
2022-12-17T03:37:49.670Z,100803.91
2022-12-17T03:40:35.765Z,100810.06
2022-12-17T03:43:25.665Z,100820.91
2022-12-17T03:46:12.175Z,100820.38
2022-12-17T03:48:58.439Z,100809.75
2022-12-17T03:51:45.479Z,100820.16
2022-12-17T03:54:31.229Z,100828.25
2022-12-17T03:57:17.211Z,100826.59
2022-12-17T04:00:03.170Z,100828.03
2022-12-17T04:02:58.284Z,100827.63
2022-12-17T04:05:44.057Z,100824.31
2022-12-17T04:08:31.213Z,100820.94
2022-12-17T04:11:17.097Z,100802.84
2022-12-17T04:14:03.211Z,100816.53
2022-12-17T04:16:49.319Z,100827.41
2022-12-17T04:19:35.256Z,100832.66
2022-12-17T04:22:21.115Z,100832.19
2022-12-17T04:25:08.203Z,100843.56
2022-12-17T04:27:54.128Z,100838.09
2022-12-17T04:30:39.956Z,100856.06
2022-12-17T04:33:25.911Z,100854.53
2022-12-17T04:36:11.941Z,100852.97
2022-12-17T04:38:57.962Z,100855.19
2022-12-17T04:41:46.603Z,100854.13
2022-12-17T04:44:46.928Z,100858.91
2022-12-17T04:47:32.974Z,100843.53
2022-12-17T04:50:18.639Z,100869.38
2022-12-17T04:53:04.603Z,100867.97
2022-12-17T04:55:52.991Z,100870.50
2022-12-17T04:58:40.325Z,100878.28
2022-12-17T05:01:26.485Z,100875.97
2022-12-17T05:04:12.776Z,100876.44
2022-12-17T05:06:58.741Z,100877.28
2022-12-17T05:09:44.656Z,100854.47
2022-12-17T05:12:30.615Z,100881.88
2022-12-17T05:15:17.670Z,100879.56
2022-12-17T05:18:04.092Z,100887.53
2022-12-17T05:20:50.168Z,100885.81
2022-12-17T05:23:36.410Z,100890.13
2022-12-17T05:26:25.570Z,100889.41
2022-12-17T05:29:15.767Z,100905.94
2022-12-17T05:32:03.229Z,100889.47
2022-12-17T05:34:49.104Z,100898.59
2022-12-17T05:37:37.567Z,100912.44
2022-12-17T05:40:24.890Z,100906.81
2022-12-17T05:43:15.523Z,100920.34
2022-12-17T05:46:01.438Z,100912.28
2022-12-17T05:48:49.113Z,100913.31
2022-12-17T05:51:38.660Z,100912.75
2022-12-17T05:54:26.396Z,100911.91
2022-12-17T05:57:12.840Z,100924.66
2022-12-17T05:59:58.689Z,100926.63
2022-12-17T06:02:44.908Z,100918.09
2022-12-17T06:05:32.902Z,100933.66
2022-12-17T06:08:23.459Z,100933.34
2022-12-17T06:11:09.541Z,100936.09
2022-12-17T06:13:55.283Z,100941.28
2022-12-17T06:16:43.320Z,100949.50
2022-12-17T06:19:28.996Z,100949.06
2022-12-17T06:22:18.307Z,100953.66
2022-12-17T06:25:03.842Z,100955.66
2022-12-17T06:27:49.894Z,100965.09
2022-12-17T06:30:35.732Z,100959.69
2022-12-17T06:33:25.987Z,100960.69
2022-12-17T06:36:21.691Z,100964.31
2022-12-17T06:39:09.838Z,100971.66
2022-12-17T06:42:00.485Z,100965.75
2022-12-17T06:44:50.021Z,100974.97
2022-12-17T06:47:36.111Z,100971.88
2022-12-17T06:50:22.898Z,100978.78
2022-12-17T06:53:18.908Z,100979.00
2022-12-17T06:56:06.200Z,100984.59
2022-12-17T06:58:52.309Z,100984.81
2022-12-17T07:01:38.264Z,100987.25
2022-12-17T07:04:24.982Z,100991.84
2022-12-17T07:07:11.041Z,101002.38
2022-12-17T07:09:57.206Z,101003.47
2022-12-17T07:12:44.716Z,101003.91
2022-12-17T07:15:30.603Z,101017.94
2022-12-17T07:18:19.859Z,101023.88
2022-12-17T07:21:06.812Z,101023.75
2022-12-17T07:23:53.113Z,101032.44
2022-12-17T07:26:39.092Z,101021.78
2022-12-17T07:29:26.121Z,101043.97
2022-12-17T07:32:12.063Z,101043.84
2022-12-17T07:35:00.338Z,101054.59
2022-12-17T07:37:46.054Z,101054.19
2022-12-17T07:40:32.037Z,101062.84
2022-12-17T07:43:18.150Z,101066.31
2022-12-17T07:46:05.555Z,101075.13
2022-12-17T07:48:51.545Z,101071.28
2022-12-17T07:51:37.672Z,101076.13
2022-12-17T07:54:37.953Z,101078.97
2022-12-17T07:57:24.100Z,101084.66
2022-12-17T08:00:09.113Z,101078.41
2022-12-17T08:02:56.497Z,101087.28
2022-12-17T08:05:42.631Z,101099.84
2022-12-17T08:08:31.906Z,101093.56
2022-12-17T08:11:17.779Z,101105.09
2022-12-17T08:14:03.920Z,101107.41
2022-12-17T08:16:49.945Z,101109.69
2022-12-17T08:19:37.008Z,101118.59
2022-12-17T08:22:23.011Z,101116.75
2022-12-17T08:25:09.004Z,101119.16
2022-12-17T08:27:55.069Z,101116.97
2022-12-17T08:30:43.440Z,101120.72
2022-12-17T08:33:29.409Z,101122.69
2022-12-17T08:36:17.004Z,101124.44
2022-12-17T08:39:03.942Z,101128.81
2022-12-17T08:41:54.233Z,101132.72
2022-12-17T08:44:41.264Z,101133.22
2022-12-17T08:47:27.322Z,101140.22
2022-12-17T08:50:13.424Z,101135.50
2022-12-17T08:53:00.481Z,101150.97
2022-12-17T08:55:46.487Z,101151.41
2022-12-17T08:58:32.446Z,101146.56
2022-12-17T09:01:19.263Z,101140.56
2022-12-17T09:04:05.933Z,101143.94
2022-12-17T09:06:52.008Z,101157.13
2022-12-17T09:09:39.122Z,101162.38
2022-12-17T09:12:25.092Z,101156.81
2022-12-17T09:15:10.851Z,101159.78
2022-12-17T09:17:56.919Z,101156.72
2022-12-17T09:20:43.148Z,101161.09
2022-12-17T09:23:29.224Z,101164.97
2022-12-17T09:26:16.611Z,101154.84
2022-12-17T09:29:02.427Z,101169.44
2022-12-17T09:31:49.654Z,101164.94
2022-12-17T09:34:36.288Z,101170.28
2022-12-17T09:37:22.679Z,101167.34
2022-12-17T09:40:08.370Z,101173.63
2022-12-17T09:43:02.730Z,101178.69
2022-12-17T09:45:55.197Z,101179.09
2022-12-17T09:48:48.885Z,101175.56
2022-12-17T09:51:42.042Z,101189.63
2022-12-17T09:54:43.457Z,101182.84
2022-12-17T09:57:36.237Z,101187.34
2022-12-17T10:00:33.580Z,101190.00
2022-12-17T10:03:21.065Z,101181.09
2022-12-17T10:06:07.991Z,101181.09
2022-12-17T10:08:54.458Z,101188.03
2022-12-17T10:11:47.029Z,101185.47
2022-12-17T10:14:38.981Z,101191.50
2022-12-17T10:17:35.289Z,101191.16
2022-12-17T10:20:23.297Z,101190.75
2022-12-17T10:23:09.745Z,101191.88
2022-12-17T10:26:01.007Z,101193.97
2022-12-17T10:28:51.268Z,101197.91
2022-12-17T10:31:40.556Z,101199.31
2022-12-17T10:34:34.135Z,101196.69
2022-12-17T10:37:19.952Z,101194.06
2022-12-17T10:40:14.891Z,101196.47
2022-12-17T10:43:05.823Z,101194.06
2022-12-17T10:45:53.790Z,101198.88
2022-12-17T10:48:41.958Z,101198.78
2022-12-17T10:51:40.702Z,101203.25
2022-12-17T10:54:41.637Z,101207.69
2022-12-17T10:57:43.255Z,101200.22
2022-12-17T11:00:49.812Z,101186.91
2022-12-17T11:03:50.640Z,101192.75
2022-12-17T11:06:44.789Z,101198.66
2022-12-17T11:09:46.470Z,101210.94
2022-12-17T11:12:35.518Z,101213.56
2022-12-17T11:15:35.666Z,101209.00
2022-12-17T11:18:23.289Z,101206.03
2022-12-17T11:21:20.152Z,101212.69
2022-12-17T11:24:10.814Z,101215.22
2022-12-17T11:27:00.013Z,101211.59
2022-12-17T11:29:46.861Z,101208.47
2022-12-17T11:33:06.972Z,101214.47
2022-12-17T11:36:05.596Z,101210.50
2022-12-17T11:38:59.253Z,101212.78
2022-12-17T11:41:58.652Z,101219.38
2022-12-17T11:45:03.845Z,101209.69
2022-12-17T11:47:59.623Z,101224.69
2022-12-17T11:50:51.392Z,101223.59
2022-12-17T11:54:03.557Z,101222.25
2022-12-17T11:56:57.446Z,101228.19
2022-12-17T11:59:53.263Z,101225.38
2022-12-17T12:03:03.431Z,101226.59
2022-12-17T12:06:00.867Z,101219.63
2022-12-17T12:08:49.182Z,101220.34
2022-12-17T12:11:47.290Z,101219.09
2022-12-17T12:14:47.540Z,101217.34
2022-12-17T12:17:51.677Z,101215.03
2022-12-17T12:20:53.782Z,101217.56
2022-12-17T12:23:48.823Z,101219.97
2022-12-17T12:26:39.905Z,101233.19
2022-12-17T12:29:43.572Z,101228.09
2022-12-17T12:32:35.962Z,101227.63
2022-12-17T12:35:23.709Z,101229.00
2022-12-17T12:38:09.846Z,101228.50
2022-12-17T12:41:05.194Z,101222.34
2022-12-17T12:43:54.730Z,101226.94
2022-12-17T12:46:49.583Z,101222.28
2022-12-17T12:49:41.806Z,101218.75
2022-12-17T12:52:33.779Z,101217.50
2022-12-17T12:55:19.641Z,101216.63
2022-12-17T12:58:16.717Z,101220.31
2022-12-17T13:01:13.783Z,101223.09
2022-12-17T13:04:11.844Z,101226.56
2022-12-17T13:06:46.581Z,101224.00
2022-12-17T13:09:49.069Z,101216.13
2022-12-17T13:12:42.379Z,101220.88
2022-12-17T13:15:23.341Z,101215.69
2022-12-17T13:18:06.886Z,101214.69
2022-12-17T13:20:36.901Z,101211.78
2022-12-17T13:23:26.724Z,101215.66
2022-12-17T13:26:20.502Z,101201.81
2022-12-17T13:29:13.125Z,101199.34
2022-12-17T13:32:18.787Z,101203.69
2022-12-17T13:35:11.657Z,101214.50
2022-12-17T13:37:52.610Z,101225.06
2022-12-17T13:40:35.620Z,101210.06
2022-12-17T13:43:04.646Z,101221.69
2022-12-17T13:45:37.848Z,101232.69
2022-12-17T13:48:06.906Z,101226.50
2022-12-17T13:50:36.460Z,101232.28
2022-12-17T13:53:15.913Z,101228.63
2022-12-17T13:55:53.041Z,101225.13
2022-12-17T13:58:26.875Z,101222.41
2022-12-17T14:01:07.445Z,101229.00
2022-12-17T14:04:04.425Z,101222.59
2022-12-17T14:06:35.734Z,101227.59
2022-12-17T14:09:06.699Z,101223.31
2022-12-17T14:11:56.004Z,101218.97
2022-12-17T14:14:33.843Z,101217.69
2022-12-17T14:17:02.943Z,101210.28
2022-12-17T14:19:34.472Z,101214.91
2022-12-17T14:22:03.137Z,101220.63
2022-12-17T14:24:33.046Z,101223.31
2022-12-17T14:27:02.534Z,101226.19
2022-12-17T14:29:33.236Z,101225.78
2022-12-17T14:32:04.587Z,101222.69
2022-12-17T14:34:42.308Z,101233.78
2022-12-17T14:37:22.969Z,101237.44
2022-12-17T14:39:58.407Z,101235.50
2022-12-17T14:42:29.689Z,101239.59
2022-12-17T14:45:01.227Z,101234.19
2022-12-17T14:47:32.597Z,101239.88
2022-12-17T14:50:06.408Z,101232.22
2022-12-17T14:52:42.451Z,101228.59
2022-12-17T14:55:31.773Z,101231.91
2022-12-17T14:58:18.988Z,101247.31
2022-12-17T15:00:51.960Z,101245.78
2022-12-17T15:03:25.583Z,101240.59
2022-12-17T15:05:58.279Z,101244.66
2022-12-17T15:08:27.156Z,101254.91
2022-12-17T15:10:57.038Z,101254.69
2022-12-17T15:13:25.521Z,101244.13
2022-12-17T15:15:54.055Z,101256.66
2022-12-17T15:18:22.989Z,101260.50
2022-12-17T15:20:51.459Z,101254.00
2022-12-17T15:23:22.755Z,101258.00
2022-12-17T15:25:53.795Z,101251.38
2022-12-17T15:28:24.934Z,101258.94
2022-12-17T15:30:53.381Z,101262.47
2022-12-17T15:33:22.134Z,101268.63
2022-12-17T15:35:50.484Z,101272.56
2022-12-17T15:38:18.916Z,101269.59
2022-12-17T15:40:47.296Z,101272.91
2022-12-17T15:43:16.007Z,101268.19
2022-12-17T15:45:48.185Z,101278.97
2022-12-17T15:48:19.404Z,101273.13
2022-12-17T15:50:48.544Z,101284.31
2022-12-17T15:53:18.107Z,101272.91
2022-12-17T15:55:46.523Z,101284.25
2022-12-17T15:58:14.996Z,101287.44
2022-12-17T16:00:43.316Z,101266.78
2022-12-17T16:03:13.183Z,101274.00
2022-12-17T16:05:41.650Z,101279.97
2022-12-17T16:08:10.088Z,101280.94
2022-12-17T16:10:39.800Z,101282.69
2022-12-17T16:13:08.228Z,101294.47
2022-12-17T16:15:36.675Z,101291.41
2022-12-17T16:18:05.382Z,101295.75
2022-12-17T16:20:35.100Z,101297.47
2022-12-17T16:23:03.649Z,101298.66
2022-12-17T16:25:32.260Z,101296.13
2022-12-17T16:28:00.602Z,101289.53
2022-12-17T16:30:28.972Z,101298.56
2022-12-17T16:32:59.788Z,101301.81
2022-12-17T16:35:29.523Z,101307.75
2022-12-17T16:37:59.288Z,101307.47
2022-12-17T16:40:28.222Z,101305.81
2022-12-17T16:42:57.586Z,101311.53
2022-12-17T16:45:25.975Z,101316.06
2022-12-17T16:47:54.374Z,101311.22
2022-12-17T16:50:22.753Z,101313.53
2022-12-17T16:52:51.688Z,101307.91
2022-12-17T16:55:21.456Z,101314.59
2022-12-17T16:57:49.815Z,101318.34
2022-12-17T17:00:18.784Z,101321.19
2022-12-17T17:02:53.050Z,101321.78
2022-12-17T17:05:22.020Z,101322.28
2022-12-17T17:07:50.464Z,101329.13
2022-12-17T17:10:20.405Z,101333.19
2022-12-17T17:12:48.715Z,101320.56
2022-12-17T17:15:17.389Z,101332.25
2022-12-17T17:17:53.846Z,101330.81
2022-12-17T17:20:24.985Z,101330.38
2022-12-17T17:22:53.390Z,101341.28
2022-12-17T17:25:24.290Z,101334.88
2022-12-17T17:27:52.870Z,101342.16
2022-12-17T17:30:21.352Z,101343.50
2022-12-17T17:32:50.054Z,101342.00
2022-12-17T17:35:18.591Z,101343.59
2022-12-17T17:37:46.971Z,101346.88
2022-12-17T17:40:15.867Z,101344.25
2022-12-17T17:42:50.201Z,101344.03
2022-12-17T17:45:20.218Z,101343.84
2022-12-17T17:47:48.541Z,101348.41
2022-12-17T17:50:17.256Z,101347.28
2022-12-17T17:52:45.683Z,101343.19
2022-12-17T17:55:14.045Z,101352.44
2022-12-17T17:57:42.485Z,101348.75
2022-12-17T18:00:14.208Z,101345.44
2022-12-17T18:02:42.680Z,101344.13
2022-12-17T18:05:11.373Z,101346.50
2022-12-17T18:07:39.703Z,101348.88
2022-12-17T18:10:09.918Z,101350.91
2022-12-17T18:13:10.458Z,101348.53
2022-12-17T18:15:40.275Z,101356.06
2022-12-17T18:18:14.335Z,101359.03
2022-12-17T18:20:43.217Z,101359.00
2022-12-17T18:23:11.648Z,101358.22
2022-12-17T18:25:40.069Z,101364.50
2022-12-17T18:28:08.507Z,101361.56
2022-12-17T18:30:40.717Z,101370.56
2022-12-17T18:33:09.137Z,101373.72
2022-12-17T18:35:37.546Z,101370.41
2022-12-17T18:38:05.902Z,101367.31
2022-12-17T18:40:36.823Z,101375.63
2022-12-17T18:43:22.818Z,101368.38
2022-12-17T18:45:53.317Z,101378.31
2022-12-17T18:48:21.840Z,101376.50
2022-12-17T18:50:50.265Z,101388.31
2022-12-17T18:53:18.751Z,101384.75
2022-12-17T18:55:47.078Z,101385.13
2022-12-17T18:58:15.514Z,101383.47
2022-12-17T19:00:44.054Z,101385.19
2022-12-17T19:03:14.637Z,101388.72
2022-12-17T19:05:46.433Z,101381.47
2022-12-17T19:08:16.100Z,101389.84
2022-12-17T19:10:44.522Z,101397.31
2022-12-17T19:13:12.889Z,101394.78
2022-12-17T19:15:41.267Z,101391.59
2022-12-17T19:18:09.673Z,101382.63
2022-12-17T19:20:39.467Z,101396.00
2022-12-17T19:23:07.979Z,101387.31
2022-12-17T19:25:36.415Z,101399.28
2022-12-17T19:28:05.144Z,101386.44
2022-12-17T19:30:34.269Z,101393.25
2022-12-17T19:33:02.615Z,101394.25
2022-12-17T19:35:30.995Z,101403.28
2022-12-17T19:38:00.660Z,101399.13
2022-12-17T19:40:29.108Z,101404.56
2022-12-17T19:42:59.766Z,101398.81
2022-12-17T19:45:28.173Z,101405.75
2022-12-17T19:47:56.742Z,101403.56
2022-12-17T19:50:25.152Z,101406.38
2022-12-17T19:52:53.511Z,101403.63
2022-12-17T19:55:23.253Z,101398.81
2022-12-17T19:57:51.617Z,101396.78
2022-12-17T20:00:20.912Z,101389.84
2022-12-17T20:02:49.466Z,101401.09
2022-12-17T20:05:18.142Z,101403.38
2022-12-17T20:07:47.525Z,101409.25
2022-12-17T20:10:16.201Z,101405.13
2022-12-17T20:12:45.941Z,101402.78
2022-12-17T20:15:14.317Z,101398.38
2022-12-17T20:17:42.741Z,101398.09
2022-12-17T20:20:12.424Z,101396.72
2022-12-17T20:22:40.848Z,101406.31
2022-12-17T20:25:11.379Z,101408.38
2022-12-17T20:27:40.486Z,101406.09
2022-12-17T20:30:11.815Z,101419.22
2022-12-17T20:32:40.159Z,101426.66
2022-12-17T20:35:09.868Z,101432.13
2022-12-17T20:37:38.273Z,101438.56
2022-12-17T20:40:08.948Z,101435.25
2022-12-17T20:42:37.340Z,101436.53
2022-12-17T20:45:06.564Z,101441.94
2022-12-17T20:47:36.342Z,101440.56
2022-12-17T20:50:05.085Z,101437.44
2022-12-17T20:52:33.487Z,101444.59
2022-12-17T20:55:01.801Z,101446.47
2022-12-17T20:57:30.195Z,101456.31
2022-12-17T20:59:58.612Z,101452.41
2022-12-17T21:02:27.394Z,101442.72
2022-12-17T21:04:57.187Z,101436.03
2022-12-17T21:07:25.522Z,101440.94
2022-12-17T21:09:53.933Z,101442.97
2022-12-17T21:12:22.506Z,101446.59
2022-12-17T21:14:50.899Z,101443.47
2022-12-17T21:17:19.332Z,101442.56
2022-12-17T21:19:47.767Z,101440.19
2022-12-17T21:22:17.666Z,101441.41
2022-12-17T21:24:46.124Z,101439.75
2022-12-17T21:27:15.121Z,101442.81
2022-12-17T21:29:44.163Z,101439.78
2022-12-17T21:32:12.495Z,101451.91
2022-12-17T21:34:41.173Z,101457.19
2022-12-17T21:37:11.219Z,101459.06
2022-12-17T21:39:41.070Z,101455.78
2022-12-17T21:42:26.796Z,101466.41
2022-12-17T21:44:55.277Z,101468.91
2022-12-17T21:47:23.916Z,101462.38
2022-12-17T21:49:52.273Z,101465.75
2022-12-17T21:52:20.718Z,101466.88
2022-12-17T21:54:50.470Z,101471.91
2022-12-17T21:57:18.984Z,101477.50
2022-12-17T21:59:47.924Z,101487.94
2022-12-17T22:02:17.176Z,101491.84
2022-12-17T22:04:45.798Z,101484.41
2022-12-17T22:07:16.274Z,101489.06
2022-12-17T22:10:16.664Z,101483.00
2022-12-17T22:12:53.641Z,101482.22
2022-12-17T22:15:22.036Z,101472.78
2022-12-17T22:17:55.041Z,101476.72
2022-12-17T22:20:24.809Z,101474.56
2022-12-17T22:22:53.093Z,101471.78
2022-12-17T22:25:21.547Z,101479.44
2022-12-17T22:27:51.386Z,101475.94
2022-12-17T22:30:37.509Z,101481.34
2022-12-17T22:33:30.071Z,101468.41
2022-12-17T22:37:13.176Z,101466.97
2022-12-17T22:44:25.904Z,101473.78
2022-12-17T22:44:37.805Z,101471.91
2022-12-17T22:44:53.364Z,101482.09
2022-12-17T22:47:23.363Z,101475.81
2022-12-17T22:49:51.692Z,101474.19
2022-12-17T22:52:20.922Z,101473.94
2022-12-17T22:54:49.457Z,101470.63
2022-12-17T22:57:36.868Z,101462.44
2022-12-17T23:00:16.323Z,101474.19
2022-12-17T23:02:44.804Z,101474.19
2022-12-17T23:05:13.260Z,101468.00
2022-12-17T23:07:41.703Z,101471.91
2022-12-17T23:10:10.989Z,101471.41
2022-12-17T23:12:51.613Z,101474.13
2022-12-17T23:15:28.346Z,101472.63
2022-12-17T23:17:59.318Z,101464.47
2022-12-17T23:20:30.528Z,101460.19
2022-12-17T23:22:59.354Z,101470.66
2022-12-17T23:25:29.366Z,101462.59
2022-12-17T23:27:57.789Z,101462.59
2022-12-17T23:30:27.600Z,101464.34
2022-12-17T23:32:56.452Z,101463.31
2022-12-17T23:35:25.567Z,101468.88
2022-12-17T23:37:53.924Z,101463.06
2022-12-17T23:40:22.938Z,101464.34
2022-12-17T23:42:51.242Z,101471.13
2022-12-17T23:45:19.637Z,101473.41
2022-12-17T23:47:49.528Z,101475.44
2022-12-17T23:50:19.911Z,101476.31
2022-12-17T23:52:48.286Z,101477.81
2022-12-17T23:55:16.617Z,101481.00
2022-12-17T23:57:45.021Z,101488.91
